createdAt,value
2018-09-28T00:02:15.959Z,97810.47
2018-09-28T00:07:10.873Z,97813.48
2018-09-28T00:12:05.691Z,97810.77
2018-09-28T00:17:00.917Z,97805.17
2018-09-28T00:21:55.752Z,97799.66
2018-09-28T00:26:50.594Z,97798.45
2018-09-28T00:31:45.440Z,97790.07
2018-09-28T00:36:40.239Z,97783.71
2018-09-28T00:41:35.102Z,97783.08
2018-09-28T00:46:30.026Z,97775.95
2018-09-28T00:51:24.987Z,97771.11
2018-09-28T00:56:19.860Z,97769.05
2018-09-28T01:01:14.774Z,97761.66
2018-09-28T01:06:09.627Z,97756.77
2018-09-28T01:11:05.336Z,97760.98
2018-09-28T01:16:00.533Z,97753.27
2018-09-28T01:20:55.418Z,97741.76
2018-09-28T01:25:50.224Z,97740.63
2018-09-28T01:30:45.023Z,97736.34
2018-09-28T01:35:39.843Z,97732.61
2018-09-28T01:40:34.672Z,97730.63
2018-09-28T01:45:29.466Z,97733.46
2018-09-28T01:50:24.393Z,97726.09
2018-09-28T01:55:19.814Z,97734.67
2018-09-28T02:00:14.604Z,97722.80
2018-09-28T02:05:09.552Z,97723.27
2018-09-28T02:10:04.429Z,97714.84
2018-09-28T02:14:59.280Z,97709.63
2018-09-28T02:19:54.072Z,97698.86
2018-09-28T02:24:48.929Z,97693.67
2018-09-28T02:29:43.721Z,97695.45
2018-09-28T02:34:38.573Z,97691.33
2018-09-28T02:39:33.470Z,97689.94
2018-09-28T02:44:28.384Z,97683.28
2018-09-28T02:49:23.197Z,97674.47
2018-09-28T02:54:18.098Z,97682.99
2018-09-28T02:59:12.888Z,97664.58
2018-09-28T03:04:07.769Z,97662.33
2018-09-28T03:09:02.670Z,97661.12
2018-09-28T03:13:57.513Z,97654.18
2018-09-28T03:18:52.997Z,97659.05
2018-09-28T03:23:47.795Z,97662.58
2018-09-28T03:28:42.578Z,97660.36
2018-09-28T03:33:37.381Z,97653.63
2018-09-28T03:38:32.226Z,97657.38
2018-09-28T03:43:27.010Z,97655.59
2018-09-28T03:48:21.821Z,97650.55
2018-09-28T03:53:16.623Z,97653.91
2018-09-28T03:58:11.472Z,97657.61
2018-09-28T04:03:06.399Z,97660.33
2018-09-28T04:08:01.303Z,97659.49
2018-09-28T04:12:56.128Z,97656.80
2018-09-28T04:17:50.954Z,97655.22
2018-09-28T04:22:46.496Z,97667.38
2018-09-28T04:27:41.346Z,97664.02
2018-09-28T04:32:36.215Z,97659.52
2018-09-28T04:37:31.012Z,97658.02
2018-09-28T04:42:25.771Z,97650.12
2018-09-28T04:47:20.664Z,97643.02
2018-09-28T04:52:15.582Z,97648.45
2018-09-28T04:57:10.350Z,97645.86
2018-09-28T05:02:05.429Z,97649.69
2018-09-28T05:07:00.262Z,97656.88
2018-09-28T05:11:55.131Z,97655.20
2018-09-28T05:16:49.986Z,97655.20
2018-09-28T05:21:44.899Z,97658.28
2018-09-28T05:26:39.837Z,97647.71
2018-09-28T05:31:34.718Z,97652.95
2018-09-28T05:36:29.532Z,97662.61
2018-09-28T05:41:24.363Z,97669.42
2018-09-28T05:46:19.282Z,97678.42
2018-09-28T05:51:14.125Z,97673.47
2018-09-28T05:56:08.977Z,97674.78
2018-09-28T06:01:08.840Z,97680.22
2018-09-28T06:06:04.295Z,97678.98
2018-09-28T06:10:59.152Z,97675.13
2018-09-28T06:15:54.089Z,97675.56
2018-09-28T06:20:49.018Z,97681.68
2018-09-28T06:25:43.976Z,97682.98
2018-09-28T06:30:38.782Z,97682.22
2018-09-28T06:35:33.632Z,97680.26
2018-09-28T06:40:28.437Z,97681.03
2018-09-28T06:45:23.295Z,97674.11
2018-09-28T06:50:18.166Z,97681.79
2018-09-28T06:55:13.001Z,97688.83
2018-09-28T07:00:09.347Z,97689.98
2018-09-28T07:05:05.260Z,97687.80
2018-09-28T07:10:00.136Z,97696.88
2018-09-28T07:14:55.034Z,97699.37
2018-09-28T07:19:49.951Z,97687.91
2018-09-28T07:24:44.859Z,97689.98
2018-09-28T07:29:39.701Z,97693.53
2018-09-28T07:34:34.539Z,97696.16
2018-09-28T07:39:29.368Z,97694.31
2018-09-28T07:44:24.181Z,97689.56
2018-09-28T07:49:19.233Z,97700.98
2018-09-28T07:54:13.999Z,97698.10
2018-09-28T07:59:08.890Z,97699.64
2018-09-28T08:04:03.769Z,97700.50
2018-09-28T08:08:58.680Z,97701.11
2018-09-28T08:13:53.482Z,97701.50
2018-09-28T08:18:50.382Z,97700.17
2018-09-28T08:23:45.264Z,97690.05
2018-09-28T08:28:41.131Z,97680.51
2018-09-28T08:33:36.362Z,97676.75
2018-09-28T08:38:31.333Z,97668.70
2018-09-28T08:43:26.194Z,97662.61
2018-09-28T08:48:21.109Z,97658.16
2018-09-28T08:53:15.965Z,97656.62
2018-09-28T08:58:10.758Z,97652.55
2018-09-28T09:03:05.620Z,97645.28
2018-09-28T09:08:00.796Z,97643.78
2018-09-28T09:12:55.729Z,97633.67
2018-09-28T09:17:50.732Z,97630.13
2018-09-28T09:22:45.514Z,97630.31
2018-09-28T09:27:40.709Z,97631.17
2018-09-28T09:32:35.681Z,97632.36
2018-09-28T09:37:31.579Z,97627.39
2018-09-28T09:42:26.612Z,97618.54
2018-09-28T09:47:21.477Z,97615.27
2018-09-28T09:52:16.350Z,97612.89
2018-09-28T09:57:11.188Z,97606.44
2018-09-28T10:02:11.310Z,97597.64
2018-09-28T10:07:06.326Z,97583.30
2018-09-28T10:12:01.297Z,97572.30
2018-09-28T10:16:58.649Z,97578.19
2018-09-28T10:21:53.479Z,97567.75
2018-09-28T10:26:48.372Z,97568.00
2018-09-28T10:31:43.183Z,97560.35
2018-09-28T10:36:38.031Z,97563.81
2018-09-28T10:41:32.848Z,97548.41
2018-09-28T10:46:27.722Z,97549.07
2018-09-28T10:51:22.647Z,97543.01
2018-09-28T10:56:17.501Z,97541.64
2018-09-28T11:01:12.379Z,97541.72
2018-09-28T11:06:07.661Z,97535.91
2018-09-28T11:11:02.914Z,97521.84
2018-09-28T11:15:57.874Z,97518.59
2018-09-28T11:20:53.943Z,97517.09
2018-09-28T11:25:48.835Z,97507.05
2018-09-28T11:30:43.806Z,97503.11
2018-09-28T11:35:38.656Z,97489.70
2018-09-28T11:40:33.503Z,97491.80
2018-09-28T11:45:28.477Z,97476.17
2018-09-28T11:50:23.167Z,97470.87
2018-09-28T11:55:17.997Z,97455.45
2018-09-28T12:00:13.262Z,97447.22
2018-09-28T12:05:08.215Z,97440.89
2018-09-28T12:10:03.156Z,97431.95
2018-09-28T12:14:58.187Z,97421.66
2018-09-28T12:19:53.075Z,97416.17
2018-09-28T12:24:48.013Z,97411.67
2018-09-28T12:29:42.907Z,97397.02
2018-09-28T12:34:37.908Z,97396.86
2018-09-28T12:39:33.023Z,97392.51
2018-09-28T12:44:28.013Z,97380.88
2018-09-28T12:49:22.914Z,97383.55
2018-09-28T12:54:17.762Z,97374.86
2018-09-28T12:59:13.438Z,97363.05
2018-09-28T13:04:12.337Z,97354.20
2018-09-28T13:09:08.377Z,97356.72
2018-09-28T13:14:03.633Z,97347.89
2018-09-28T13:18:58.654Z,97343.38
2018-09-28T13:23:53.585Z,97334.19
2018-09-28T13:28:48.438Z,97333.86
2018-09-28T13:33:43.248Z,97330.38
2018-09-28T13:38:38.283Z,97312.54
2018-09-28T13:43:32.888Z,97317.13
2018-09-28T13:48:27.780Z,97307.16
2018-09-28T13:53:22.644Z,97309.07
2018-09-28T13:58:18.199Z,97304.44
2018-09-28T14:03:13.046Z,97302.78
2018-09-28T14:08:08.021Z,97295.78
2018-09-28T14:13:02.821Z,97294.33
2018-09-28T14:17:57.660Z,97291.66
2018-09-28T14:22:52.489Z,97292.83
2018-09-28T14:27:48.387Z,97285.64
2018-09-28T14:32:43.972Z,97284.44
2018-09-28T14:37:38.791Z,97279.92
2018-09-28T14:42:33.617Z,97279.08
2018-09-28T14:47:28.524Z,97267.42
2018-09-28T14:52:23.464Z,97267.72
2018-09-28T14:57:18.296Z,97271.40
2018-09-28T15:02:13.249Z,97271.55
2018-09-28T15:07:08.381Z,97266.34
2018-09-28T15:12:03.298Z,97277.83
2018-09-28T15:16:58.132Z,97266.87
2018-09-28T15:21:53.210Z,97265.59
2018-09-28T15:26:51.884Z,97263.22
2018-09-28T15:31:50.026Z,97257.64
2018-09-28T15:36:48.424Z,97268.47
2018-09-28T15:41:45.876Z,97260.53
2018-09-28T15:46:40.912Z,97270.34
2018-09-28T15:51:40.770Z,97277.61
2018-09-28T15:56:35.897Z,97276.24
2018-09-28T16:01:30.812Z,97275.58
2018-09-28T16:06:28.689Z,97281.55
2018-09-28T16:11:24.585Z,97286.52
2018-09-28T16:16:21.139Z,97284.51
2018-09-28T16:21:17.736Z,97287.65
2018-09-28T16:26:12.710Z,97289.14
2018-09-28T16:31:07.860Z,97288.27
2018-09-28T16:36:03.169Z,97294.05
2018-09-28T16:40:57.963Z,97296.88
2018-09-28T16:45:52.831Z,97302.56
2018-09-28T16:50:47.697Z,97297.52
2018-09-28T16:55:42.549Z,97308.09
2018-09-28T17:00:37.891Z,97308.82
2018-09-28T17:05:32.875Z,97312.92
2018-09-28T17:10:27.758Z,97329.05
2018-09-28T17:15:22.685Z,97336.38
2018-09-28T17:20:17.579Z,97342.52
2018-09-28T17:25:12.617Z,97349.31
2018-09-28T17:30:08.423Z,97352.61
2018-09-28T17:35:04.045Z,97359.70
2018-09-28T17:40:00.145Z,97367.40
2018-09-28T17:44:55.372Z,97365.91
2018-09-28T17:49:51.905Z,97379.52
2018-09-28T17:54:47.029Z,97385.27
2018-09-28T17:59:42.378Z,97405.06
2018-09-28T18:04:40.059Z,97405.72
2018-09-28T18:09:35.639Z,97413.94
2018-09-28T18:14:31.082Z,97422.06
2018-09-28T18:19:26.284Z,97440.11
2018-09-28T18:24:23.920Z,97449.70
2018-09-28T18:29:20.282Z,97461.95
2018-09-28T18:36:51.551Z,97478.58
2018-09-28T18:41:50.355Z,97494.56
2018-09-28T18:46:46.942Z,97488.09
2018-09-28T18:51:42.311Z,97496.78
2018-09-28T18:56:38.448Z,97498.05
2018-09-28T19:01:36.554Z,97510.88
2018-09-28T19:06:34.997Z,97519.45
2018-09-28T19:11:32.897Z,97523.42
2018-09-28T19:16:27.811Z,97522.38
2018-09-28T19:21:23.275Z,97517.36
2018-09-28T19:26:18.270Z,97521.80
2018-09-28T19:31:13.239Z,97530.60
2018-09-28T19:36:08.320Z,97549.45
2018-09-28T19:41:05.462Z,97562.45
2018-09-28T19:46:00.379Z,97563.97
2018-09-28T19:50:55.310Z,97564.19
2018-09-28T19:55:50.305Z,97569.70
2018-09-28T20:00:45.526Z,97579.69
2018-09-28T20:05:40.417Z,97582.97
2018-09-28T20:10:35.383Z,97589.16
2018-09-28T20:15:30.271Z,97585.99
2018-09-28T20:20:25.765Z,97600.16
2018-09-28T20:25:20.785Z,97612.84
2018-09-28T20:30:15.671Z,97618.23
2018-09-28T20:35:11.717Z,97622.95
2018-09-28T20:40:06.720Z,97616.08
2018-09-28T20:45:01.792Z,97617.41
2018-09-28T20:49:57.013Z,97627.52
2018-09-28T20:54:51.944Z,97617.34
2018-09-28T20:59:46.822Z,97616.66
2018-09-28T21:04:41.649Z,97610.94
2018-09-28T21:09:36.522Z,97609.12
2018-09-28T21:14:31.405Z,97626.48
2018-09-28T21:19:26.265Z,97628.11
2018-09-28T21:24:21.386Z,97644.41
2018-09-28T21:29:16.243Z,97644.84
2018-09-28T21:34:11.069Z,97649.28
2018-09-28T21:39:08.234Z,97650.38
2018-09-28T21:44:03.089Z,97654.92
2018-09-28T21:48:58.088Z,97658.66
2018-09-28T21:53:52.940Z,97662.51
2018-09-28T21:58:47.762Z,97671.31
2018-09-28T22:03:42.596Z,97677.36
2018-09-28T22:08:37.521Z,97675.11
2018-09-28T22:13:32.393Z,97676.36
2018-09-28T22:18:27.201Z,97687.62
2018-09-28T22:23:22.062Z,97690.87
2018-09-28T22:28:17.044Z,97698.66
2018-09-28T22:33:11.881Z,97705.13
2018-09-28T22:38:06.736Z,97698.45
2018-09-28T22:43:01.657Z,97700.41
2018-09-28T22:47:56.444Z,97694.30
2018-09-28T22:52:51.342Z,97696.80
2018-09-28T22:57:46.199Z,97691.77
2018-09-28T23:02:41.018Z,97704.36
2018-09-28T23:07:35.859Z,97694.86
2018-09-28T23:12:30.741Z,97701.20
2018-09-28T23:17:26.251Z,97701.08
2018-09-28T23:22:21.127Z,97705.31
2018-09-28T23:27:15.923Z,97714.05
2018-09-28T23:32:10.701Z,97714.72
2018-09-28T23:37:05.617Z,97714.20
2018-09-28T23:42:00.470Z,97720.09
2018-09-28T23:46:55.342Z,97721.20
2018-09-28T23:51:51.567Z,97726.98
2018-09-28T23:56:46.604Z,97740.44
